createdAt,value
2019-03-24T00:03:13.738Z,4.63
2019-03-24T00:08:19.151Z,3.73
2019-03-24T00:13:25.023Z,3.40
2019-03-24T00:18:30.382Z,4.43
2019-03-24T00:23:35.631Z,2.93
2019-03-24T00:28:40.793Z,3.40
2019-03-24T00:33:45.971Z,4.50
2019-03-24T00:38:51.097Z,3.50
2019-03-24T00:43:56.322Z,3.03
2019-03-24T00:49:01.500Z,4.10
2019-03-24T00:54:22.861Z,3.60
2019-03-24T00:59:30.879Z,3.13
2019-03-24T01:04:35.997Z,4.43
2019-03-24T01:09:41.164Z,4.00
2019-03-24T01:14:46.255Z,4.37
2019-03-24T01:19:51.431Z,3.60
2019-03-24T01:24:56.752Z,3.87
2019-03-24T01:30:01.990Z,3.60
2019-03-24T01:35:07.834Z,3.63
2019-03-24T01:40:13.255Z,4.13
2019-03-24T01:45:18.375Z,4.43
2019-03-24T01:50:23.681Z,3.67
2019-03-24T01:55:28.820Z,3.70
2019-03-24T02:00:34.117Z,4.60
2019-03-24T02:05:39.295Z,4.00
2019-03-24T02:10:44.575Z,4.80
2019-03-24T02:15:49.719Z,4.33
2019-03-24T02:20:58.042Z,4.27
2019-03-24T02:26:03.285Z,3.93
2019-03-24T02:31:08.616Z,4.73
2019-03-24T02:36:13.853Z,4.10
2019-03-24T02:41:22.083Z,4.50
2019-03-24T02:46:27.176Z,5.77
2019-03-24T02:51:32.573Z,5.60
2019-03-24T02:56:37.753Z,6.27
2019-03-24T03:01:43.006Z,4.40
2019-03-24T03:06:48.183Z,5.57
2019-03-24T03:11:53.226Z,4.70
2019-03-24T03:16:58.356Z,5.10
2019-03-24T03:22:03.819Z,4.87
2019-03-24T03:27:09.141Z,4.50
2019-03-24T03:32:14.232Z,5.60
2019-03-24T03:37:19.559Z,5.33
2019-03-24T03:42:23.865Z,4.70
2019-03-24T03:47:29.006Z,5.57
2019-03-24T03:52:34.323Z,4.77
2019-03-24T03:57:42.237Z,4.80
2019-03-24T04:02:47.419Z,4.57
2019-03-24T04:07:52.805Z,5.17
2019-03-24T04:12:58.037Z,5.37
2019-03-24T04:18:03.284Z,4.03
2019-03-24T04:23:08.448Z,3.97
2019-03-24T04:28:13.759Z,4.83
2019-03-24T04:33:18.781Z,5.00
2019-03-24T04:38:23.851Z,4.10
2019-03-24T04:43:29.152Z,3.80
2019-03-24T04:48:34.322Z,5.17
2019-03-24T04:53:39.407Z,4.40
2019-03-24T04:58:44.524Z,3.70
2019-03-24T05:03:49.772Z,3.53
2019-03-24T05:08:55.876Z,4.20
2019-03-24T05:14:01.259Z,3.73
2019-03-24T05:19:06.518Z,4.17
2019-03-24T05:24:11.749Z,4.07
2019-03-24T05:29:16.909Z,3.17
2019-03-24T05:34:22.279Z,3.70
2019-03-24T05:39:27.504Z,3.73
2019-03-24T05:44:32.744Z,3.27
2019-03-24T05:49:37.920Z,3.30
2019-03-24T05:54:47.191Z,3.33
2019-03-24T05:59:52.350Z,4.10
2019-03-24T06:04:57.363Z,3.47
2019-03-24T06:10:02.624Z,3.67
2019-03-24T06:15:09.039Z,3.63
2019-03-24T06:20:14.518Z,3.77
2019-03-24T06:25:19.727Z,3.60
2019-03-24T06:30:24.798Z,4.00
2019-03-24T06:35:30.159Z,4.00
2019-03-24T06:40:35.240Z,4.20
2019-03-24T06:45:40.469Z,4.40
2019-03-24T06:50:45.680Z,4.03
2019-03-24T06:55:50.910Z,4.83
2019-03-24T07:00:56.459Z,4.93
2019-03-24T07:06:01.714Z,4.13
2019-03-24T07:11:13.235Z,5.17
2019-03-24T07:16:13.976Z,4.93
2019-03-24T07:21:19.100Z,4.73
2019-03-24T07:26:24.631Z,3.90
2019-03-24T07:31:29.807Z,4.10
2019-03-24T07:36:35.024Z,3.63
2019-03-24T07:41:45.072Z,4.23
2019-03-24T07:46:50.614Z,3.73
2019-03-24T07:51:59.185Z,4.57
2019-03-24T07:57:04.546Z,5.60
2019-03-24T08:02:09.924Z,5.53
2019-03-24T08:07:15.282Z,3.97
2019-03-24T08:12:20.558Z,3.97
2019-03-24T08:17:31.578Z,5.47
2019-03-24T08:22:36.769Z,3.10
2019-03-24T08:27:41.968Z,5.20
2019-03-24T08:32:47.077Z,4.10
2019-03-24T08:37:52.328Z,4.83
2019-03-24T08:42:57.633Z,5.87
2019-03-24T08:48:03.025Z,4.10
2019-03-24T08:53:08.199Z,5.63
2019-03-24T08:58:13.463Z,5.03
2019-03-24T09:03:18.721Z,4.60
2019-03-24T09:08:24.048Z,4.40
2019-03-24T09:13:29.344Z,5.13
2019-03-24T09:18:34.671Z,5.07
2019-03-24T09:23:39.918Z,5.13
2019-03-24T09:28:45.210Z,3.60
2019-03-24T09:33:53.769Z,3.60
2019-03-24T09:38:59.210Z,4.57
2019-03-24T09:44:04.712Z,4.83
2019-03-24T09:49:09.847Z,4.27
2019-03-24T09:54:14.949Z,4.50
2019-03-24T09:59:20.205Z,3.50
2019-03-24T10:04:25.688Z,2.90
2019-03-24T10:09:31.098Z,3.20
2019-03-24T10:14:36.666Z,3.97
2019-03-24T10:19:41.822Z,4.13
2019-03-24T10:24:47.093Z,3.67
2019-03-24T10:29:52.327Z,3.73
2019-03-24T10:34:57.393Z,4.87
2019-03-24T10:40:02.729Z,4.50
2019-03-24T10:45:14.714Z,4.73
2019-03-24T10:50:19.978Z,4.17
2019-03-24T10:55:25.165Z,3.87
2019-03-24T11:00:46.148Z,5.83
2019-03-24T11:05:52.739Z,3.90
2019-03-24T11:10:57.870Z,4.20
2019-03-24T11:16:03.136Z,4.07
2019-03-24T11:21:08.950Z,3.97
2019-03-24T11:26:14.304Z,4.27
2019-03-24T11:31:21.752Z,4.87
2019-03-24T11:36:27.127Z,4.57
2019-03-24T11:41:32.326Z,4.17
2019-03-24T11:46:37.776Z,4.30
2019-03-24T11:51:45.338Z,4.87
2019-03-24T11:56:50.525Z,5.17
2019-03-24T12:01:55.900Z,4.13
2019-03-24T12:07:01.238Z,4.00
2019-03-24T12:12:06.614Z,3.93
2019-03-24T12:17:11.838Z,3.23
2019-03-24T12:22:17.119Z,2.90
2019-03-24T12:27:22.320Z,2.80
2019-03-24T12:32:27.566Z,2.37
2019-03-24T12:37:33.030Z,3.00
2019-03-24T12:42:38.863Z,2.67
2019-03-24T12:47:44.305Z,3.03
2019-03-24T12:52:49.571Z,2.90
2019-03-24T12:57:54.873Z,2.93
2019-03-24T13:03:00.249Z,2.47
2019-03-24T13:08:16.442Z,2.67
2019-03-24T13:13:21.656Z,2.10
2019-03-24T13:18:27.010Z,2.57
2019-03-24T13:23:32.187Z,1.90
2019-03-24T13:28:37.418Z,2.73
2019-03-24T13:33:42.614Z,2.60
2019-03-24T13:38:47.863Z,2.67
2019-03-24T13:43:53.432Z,2.83
2019-03-24T13:48:58.747Z,2.40
2019-03-24T13:54:04.019Z,2.30
2019-03-24T13:59:09.315Z,2.20
2019-03-24T14:04:14.575Z,2.40
2019-03-24T14:09:19.611Z,2.70
2019-03-24T14:14:24.842Z,2.40
2019-03-24T14:19:30.315Z,2.20
2019-03-24T14:24:35.530Z,2.20
2019-03-24T14:29:40.819Z,2.20
2019-03-24T14:34:46.069Z,2.40
2019-03-24T14:39:51.458Z,2.37
2019-03-24T14:44:56.731Z,2.40
2019-03-24T14:50:02.166Z,2.50
2019-03-24T14:55:07.641Z,2.53
2019-03-24T15:00:13.217Z,2.03
2019-03-24T15:05:18.666Z,3.57
2019-03-24T15:10:23.917Z,2.70
2019-03-24T15:15:29.386Z,2.50
2019-03-24T15:20:34.668Z,2.80
2019-03-24T15:25:39.842Z,2.30
2019-03-24T15:30:45.283Z,2.40
2019-03-24T15:35:50.488Z,2.03
2019-03-24T15:40:55.873Z,1.60
2019-03-24T15:46:01.286Z,2.03
2019-03-24T15:51:16.394Z,2.03
2019-03-24T15:56:13.634Z,2.70
2019-03-24T16:01:18.819Z,2.30
2019-03-24T16:06:24.155Z,2.00
2019-03-24T16:11:29.460Z,2.60
2019-03-24T16:16:34.631Z,3.20
2019-03-24T16:21:39.905Z,2.83
2019-03-24T16:26:45.191Z,2.57
2019-03-24T16:31:50.453Z,2.57
2019-03-24T16:36:55.683Z,2.40
2019-03-24T16:42:01.082Z,2.67
2019-03-24T16:47:06.371Z,2.70
2019-03-24T16:52:11.548Z,3.00
2019-03-24T16:57:16.763Z,2.77
2019-03-24T17:02:21.991Z,2.80
2019-03-24T17:07:27.320Z,3.43
2019-03-24T17:12:32.699Z,2.60
2019-03-24T17:17:37.921Z,2.80
2019-03-24T17:22:43.146Z,3.37
2019-03-24T17:27:48.441Z,3.30
2019-03-24T17:32:53.686Z,3.20
2019-03-24T17:37:58.962Z,2.57
2019-03-24T17:43:04.397Z,2.77
2019-03-24T17:48:13.085Z,2.27
2019-03-24T17:53:18.371Z,2.03
2019-03-24T17:58:25.712Z,2.53
2019-03-24T18:03:31.025Z,1.93
2019-03-24T18:08:36.275Z,1.90
2019-03-24T18:13:44.800Z,2.77
2019-03-24T18:18:50.105Z,2.40
2019-03-24T18:23:55.609Z,2.23
2019-03-24T18:29:00.956Z,2.70
2019-03-24T18:34:06.253Z,2.37
2019-03-24T18:39:11.454Z,1.80
2019-03-24T18:44:16.666Z,1.93
2019-03-24T18:49:21.923Z,2.27
2019-03-24T18:54:27.043Z,2.13
2019-03-24T18:59:31.970Z,2.07
2019-03-24T19:04:36.971Z,2.20
2019-03-24T19:09:43.163Z,2.60
2019-03-24T19:14:48.293Z,2.60
2019-03-24T19:19:53.391Z,3.00
2019-03-24T19:25:00.436Z,2.73
2019-03-24T19:30:06.910Z,2.97
2019-03-24T19:35:14.615Z,3.23
2019-03-24T19:40:27.756Z,2.40
2019-03-24T19:45:33.006Z,2.93
2019-03-24T19:50:37.470Z,2.27
2019-03-24T19:55:42.974Z,2.20
2019-03-24T20:00:48.484Z,2.07
2019-03-24T20:05:52.913Z,2.30
2019-03-24T20:10:57.650Z,2.63
2019-03-24T20:16:02.396Z,2.17
2019-03-24T20:21:06.986Z,2.30
2019-03-24T20:26:11.438Z,2.60
2019-03-24T20:31:15.729Z,2.23
2019-03-24T20:36:20.086Z,2.43
2019-03-24T20:41:25.644Z,2.40
2019-03-24T20:46:30.314Z,2.40
2019-03-24T20:51:35.402Z,2.70
2019-03-24T20:56:40.042Z,2.93
2019-03-24T21:01:44.472Z,2.27
2019-03-24T21:06:49.767Z,2.50
2019-03-24T21:11:54.535Z,2.60
2019-03-24T21:16:59.447Z,2.20
2019-03-24T21:22:04.686Z,2.73
2019-03-24T21:27:11.106Z,2.57
2019-03-24T21:32:16.570Z,2.40
2019-03-24T21:37:21.913Z,3.23
2019-03-24T21:42:26.339Z,2.37
2019-03-24T21:47:31.666Z,2.83
2019-03-24T21:52:36.984Z,2.43
2019-03-24T21:57:42.377Z,2.30
2019-03-24T22:02:46.934Z,3.10
2019-03-24T22:07:51.134Z,2.50
2019-03-24T22:12:56.491Z,2.37
2019-03-24T22:18:01.712Z,3.43
2019-03-24T22:23:06.166Z,2.67
2019-03-24T22:28:10.852Z,2.77
2019-03-24T22:33:16.179Z,2.83
2019-03-24T22:38:20.769Z,3.30
2019-03-24T22:43:27.046Z,3.17
2019-03-24T22:48:32.265Z,3.43
2019-03-24T22:53:37.640Z,3.53
2019-03-24T22:58:43.221Z,3.63
2019-03-24T23:03:48.030Z,3.20
2019-03-24T23:08:52.288Z,5.57
2019-03-24T23:13:56.648Z,5.67
2019-03-24T23:19:01.809Z,5.10
2019-03-24T23:24:15.233Z,4.77
2019-03-24T23:29:15.711Z,4.13
2019-03-24T23:34:21.015Z,3.40
2019-03-24T23:39:26.278Z,3.10
2019-03-24T23:44:30.718Z,3.30
2019-03-24T23:49:35.067Z,3.20
2019-03-24T23:54:40.162Z,3.40
2019-03-24T23:59:45.392Z,3.20
